createdAt,value
2023-02-13T00:01:34.245Z,33.41
2023-02-13T00:04:00.606Z,33.43
2023-02-13T00:06:26.956Z,33.39
2023-02-13T00:08:53.306Z,33.66
2023-02-13T00:11:20.588Z,33.60
2023-02-13T00:13:46.923Z,33.54
2023-02-13T00:16:13.322Z,33.99
2023-02-13T00:18:39.687Z,33.46
2023-02-13T00:21:07.018Z,33.82
2023-02-13T00:23:33.536Z,33.77
2023-02-13T00:26:00.034Z,33.66
2023-02-13T00:28:26.695Z,33.63
2023-02-13T00:30:53.201Z,33.43
2023-02-13T00:33:19.552Z,33.48
2023-02-13T00:35:45.865Z,33.45
2023-02-13T00:38:12.167Z,33.50
2023-02-13T00:40:38.481Z,33.54
2023-02-13T00:43:04.782Z,33.72
2023-02-13T00:45:31.102Z,33.63
2023-02-13T00:47:57.422Z,33.32
2023-02-13T00:50:23.749Z,33.60
2023-02-13T00:52:50.063Z,33.56
2023-02-13T00:55:16.426Z,33.47
2023-02-13T00:57:42.729Z,33.60
2023-02-13T01:00:09.252Z,34.09
2023-02-13T01:02:36.175Z,34.05
2023-02-13T01:05:02.667Z,33.62
2023-02-13T01:07:28.989Z,34.01
2023-02-13T01:09:55.315Z,34.21
2023-02-13T01:12:21.624Z,33.80
2023-02-13T01:14:47.972Z,33.88
2023-02-13T01:17:14.295Z,33.36
2023-02-13T01:19:40.834Z,33.42
2023-02-13T01:22:07.837Z,33.38
2023-02-13T01:24:34.167Z,33.35
2023-02-13T01:27:02.365Z,33.57
2023-02-13T01:29:29.016Z,33.43
2023-02-13T01:31:55.447Z,33.22
2023-02-13T01:34:21.818Z,33.62
2023-02-13T01:36:48.136Z,33.42
2023-02-13T01:39:14.695Z,33.68
2023-02-13T01:41:41.081Z,33.83
2023-02-13T01:44:26.373Z,33.57
2023-02-13T01:46:53.081Z,34.05
2023-02-13T01:49:20.540Z,33.69
2023-02-13T01:51:47.195Z,33.43
2023-02-13T01:54:18.725Z,33.89
2023-02-13T01:56:45.252Z,33.94
2023-02-13T01:59:13.392Z,33.86
2023-02-13T02:01:39.810Z,33.77
2023-02-13T02:04:10.841Z,33.89
2023-02-13T02:06:38.383Z,33.75
2023-02-13T02:09:12.399Z,34.07
2023-02-13T02:11:47.020Z,34.23
2023-02-13T02:14:13.335Z,34.26
2023-02-13T02:16:39.664Z,34.17
2023-02-13T02:19:07.685Z,34.11
2023-02-13T02:21:56.569Z,33.91
2023-02-13T02:24:58.839Z,34.01
2023-02-13T02:27:43.831Z,34.06
2023-02-13T02:30:12.931Z,33.98
2023-02-13T02:32:48.006Z,34.19
2023-02-13T02:35:20.474Z,34.03
2023-02-13T02:38:02.184Z,34.09
2023-02-13T02:40:32.431Z,34.03
2023-02-13T02:43:17.553Z,34.19
2023-02-13T02:45:47.183Z,34.03
2023-02-13T02:51:03.282Z,34.10
2023-02-13T02:53:48.666Z,34.43
2023-02-13T02:56:23.326Z,34.07
2023-02-13T02:59:08.540Z,34.30
2023-02-13T03:01:53.328Z,34.09
2023-02-13T03:04:49.496Z,34.15
2023-02-13T03:07:16.661Z,34.16
2023-02-13T03:10:02.718Z,33.97
2023-02-13T03:13:08.013Z,34.15
2023-02-13T03:15:35.324Z,34.13
2023-02-13T03:18:20.339Z,34.24
2023-02-13T03:21:07.304Z,34.19
2023-02-13T03:23:40.544Z,34.10
2023-02-13T03:26:16.051Z,34.14
2023-02-13T03:29:04.420Z,34.32
2023-02-13T03:31:32.822Z,34.23
2023-02-13T03:34:04.525Z,34.19
2023-02-13T03:36:53.465Z,34.41
2023-02-13T03:39:38.528Z,34.24
2023-02-13T03:42:06.180Z,34.23
2023-02-13T03:44:43.207Z,34.25
2023-02-13T03:47:09.551Z,34.15
2023-02-13T03:49:59.671Z,34.31
2023-02-13T03:52:28.957Z,34.32
2023-02-13T03:55:15.097Z,34.42
2023-02-13T03:58:01.544Z,34.35
2023-02-13T04:00:28.630Z,34.27
2023-02-13T04:02:57.544Z,34.29
2023-02-13T04:05:25.376Z,34.21
2023-02-13T04:07:51.698Z,34.21
2023-02-13T04:10:18.182Z,34.37
2023-02-13T04:12:54.046Z,34.43
2023-02-13T04:15:31.556Z,34.44
2023-02-13T04:18:06.349Z,34.34
2023-02-13T04:20:32.660Z,34.30
2023-02-13T04:22:59.009Z,34.30
2023-02-13T04:25:25.580Z,34.42
2023-02-13T04:27:52.184Z,34.29
2023-02-13T04:30:18.527Z,34.21
2023-02-13T04:32:44.887Z,34.19
2023-02-13T04:35:12.850Z,34.29
2023-02-13T04:37:39.173Z,34.08
2023-02-13T04:40:05.779Z,34.37
2023-02-13T04:42:32.138Z,34.42
2023-02-13T04:44:58.444Z,34.50
2023-02-13T04:47:25.003Z,34.58
2023-02-13T04:49:51.312Z,34.31
2023-02-13T04:52:18.044Z,34.52
2023-02-13T04:54:44.366Z,34.63
2023-02-13T04:57:10.695Z,34.42
2023-02-13T04:59:37.028Z,34.60
2023-02-13T05:02:03.401Z,34.26
2023-02-13T05:04:30.006Z,34.29
2023-02-13T05:06:56.352Z,34.46
2023-02-13T05:09:22.674Z,34.52
2023-02-13T05:11:51.172Z,34.47
2023-02-13T05:14:17.497Z,34.42
2023-02-13T05:16:43.814Z,34.39
2023-02-13T05:19:10.292Z,34.49
2023-02-13T05:21:55.519Z,34.43
2023-02-13T05:24:21.831Z,34.42
2023-02-13T05:26:48.166Z,34.36
2023-02-13T05:29:20.745Z,34.29
2023-02-13T05:31:47.505Z,34.56
2023-02-13T05:34:13.948Z,34.48
2023-02-13T05:36:40.292Z,34.38
2023-02-13T05:39:06.643Z,34.46
2023-02-13T05:41:32.964Z,34.44
2023-02-13T05:43:59.290Z,34.38
2023-02-13T05:46:25.713Z,34.44
2023-02-13T05:48:52.244Z,34.42
2023-02-13T05:51:19.047Z,34.36
2023-02-13T05:53:45.360Z,34.45
2023-02-13T05:56:11.668Z,34.52
2023-02-13T05:58:37.985Z,34.42
2023-02-13T06:01:04.407Z,34.51
2023-02-13T06:03:30.957Z,34.43
2023-02-13T06:05:57.295Z,34.58
2023-02-13T06:08:23.625Z,34.63
2023-02-13T06:10:50.017Z,34.68
2023-02-13T06:13:16.401Z,34.72
2023-02-13T06:15:42.746Z,34.78
2023-02-13T06:18:09.067Z,34.84
2023-02-13T06:20:35.469Z,34.67
2023-02-13T06:23:01.814Z,34.71
2023-02-13T06:25:28.129Z,34.79
2023-02-13T06:27:54.462Z,34.81
2023-02-13T06:30:20.816Z,34.71
2023-02-13T06:32:47.251Z,34.71
2023-02-13T06:35:13.716Z,34.78
2023-02-13T06:37:40.044Z,35.07
2023-02-13T06:40:07.254Z,35.07
2023-02-13T06:42:33.608Z,34.96
2023-02-13T06:44:59.919Z,34.85
2023-02-13T06:47:26.335Z,34.93
2023-02-13T06:49:52.732Z,35.04
2023-02-13T06:52:19.407Z,34.83
2023-02-13T06:54:47.938Z,34.76
2023-02-13T06:57:14.650Z,34.76
2023-02-13T06:59:40.966Z,34.75
2023-02-13T07:02:08.501Z,34.78
2023-02-13T07:04:34.800Z,34.54
2023-02-13T07:07:01.178Z,34.74
2023-02-13T07:09:27.483Z,34.71
2023-02-13T07:11:53.811Z,34.54
2023-02-13T07:14:20.125Z,34.64
2023-02-13T07:16:46.448Z,34.58
2023-02-13T07:19:12.773Z,34.55
2023-02-13T07:21:39.210Z,34.76
2023-02-13T07:24:07.996Z,34.71
2023-02-13T07:26:34.480Z,34.85
2023-02-13T07:29:11.185Z,34.67
2023-02-13T07:31:39.238Z,34.96
2023-02-13T07:34:05.688Z,34.69
2023-02-13T07:36:31.997Z,34.73
2023-02-13T07:38:58.333Z,34.75
2023-02-13T07:41:26.707Z,34.73
2023-02-13T07:43:53.267Z,34.78
2023-02-13T07:46:19.599Z,34.58
2023-02-13T07:48:45.980Z,34.54
2023-02-13T07:51:12.310Z,34.50
2023-02-13T07:53:38.630Z,34.54
2023-02-13T07:56:07.956Z,34.55
2023-02-13T07:58:34.391Z,34.56
2023-02-13T08:01:05.647Z,34.60
2023-02-13T08:03:32.146Z,34.85
2023-02-13T08:05:58.821Z,34.81
2023-02-13T08:08:25.392Z,34.51
2023-02-13T08:11:10.367Z,34.49
2023-02-13T08:13:37.412Z,34.31
2023-02-13T08:16:03.798Z,34.14
2023-02-13T08:18:30.131Z,34.15
2023-02-13T08:20:56.433Z,34.20
2023-02-13T08:23:22.816Z,34.08
2023-02-13T08:25:49.826Z,34.02
2023-02-13T08:28:16.426Z,33.99
2023-02-13T08:30:42.843Z,34.20
2023-02-13T08:33:09.261Z,34.28
2023-02-13T08:35:35.669Z,34.41
2023-02-13T08:38:04.810Z,34.45
2023-02-13T08:40:31.577Z,34.33
2023-02-13T08:43:01.897Z,34.31
2023-02-13T08:45:28.364Z,34.55
2023-02-13T08:47:58.255Z,34.77
2023-02-13T08:50:24.637Z,34.95
2023-02-13T08:52:50.964Z,34.98
2023-02-13T08:55:17.818Z,34.79
2023-02-13T08:57:44.193Z,34.98
2023-02-13T09:00:10.704Z,34.38
2023-02-13T09:02:37.088Z,34.59
2023-02-13T09:05:03.432Z,34.65
2023-02-13T09:07:29.762Z,34.61
2023-02-13T09:09:56.084Z,35.01
2023-02-13T09:12:22.651Z,34.89
2023-02-13T09:14:48.991Z,34.67
2023-02-13T09:17:18.365Z,34.87
2023-02-13T09:19:45.576Z,34.67
2023-02-13T09:22:11.912Z,34.19
2023-02-13T09:24:38.369Z,34.21
2023-02-13T09:27:04.944Z,34.19
2023-02-13T09:29:33.726Z,34.00
2023-02-13T09:32:00.097Z,34.10
2023-02-13T09:34:26.587Z,34.02
2023-02-13T09:36:53.628Z,33.95
2023-02-13T09:39:19.951Z,33.90
2023-02-13T09:41:47.540Z,33.76
2023-02-13T09:44:33.700Z,34.01
2023-02-13T09:47:02.900Z,33.87
2023-02-13T09:49:30.412Z,33.95
2023-02-13T09:51:56.849Z,34.23
2023-02-13T09:54:23.168Z,33.93
2023-02-13T09:57:00.553Z,33.99
2023-02-13T09:59:26.830Z,34.05
2023-02-13T10:01:53.261Z,33.86
2023-02-13T10:04:22.673Z,34.12
2023-02-13T10:07:09.237Z,34.13
2023-02-13T10:09:48.219Z,34.11
2023-02-13T10:12:22.678Z,34.18
2023-02-13T10:15:04.435Z,34.10
2023-02-13T10:17:34.278Z,34.21
2023-02-13T10:20:26.993Z,34.00
2023-02-13T10:22:55.635Z,34.03
2023-02-13T10:25:22.901Z,33.99
2023-02-13T10:27:55.787Z,34.04
2023-02-13T10:30:22.760Z,34.08
2023-02-13T10:33:11.186Z,33.88
2023-02-13T10:35:37.991Z,33.99
2023-02-13T10:38:11.296Z,34.01
2023-02-13T10:40:38.791Z,34.10
2023-02-13T10:43:08.642Z,34.08
2023-02-13T10:45:43.779Z,33.86
2023-02-13T10:48:26.169Z,34.03
2023-02-13T10:50:57.560Z,34.14
2023-02-13T10:53:27.649Z,34.01
2023-02-13T10:56:14.411Z,33.96
2023-02-13T10:58:46.817Z,34.08
2023-02-13T11:01:15.929Z,33.96
2023-02-13T11:03:42.929Z,33.86
2023-02-13T11:06:12.042Z,33.85
2023-02-13T11:08:43.298Z,33.90
2023-02-13T11:11:48.195Z,33.84
2023-02-13T11:14:18.523Z,33.98
2023-02-13T11:16:51.648Z,34.07
2023-02-13T11:19:18.977Z,33.80
2023-02-13T11:21:45.535Z,33.99
2023-02-13T11:24:21.877Z,34.01
2023-02-13T11:26:50.443Z,33.80
2023-02-13T11:29:18.288Z,33.87
2023-02-13T11:31:44.726Z,33.95
2023-02-13T11:34:26.681Z,33.90
2023-02-13T11:36:53.489Z,34.03
2023-02-13T11:39:20.621Z,34.06
2023-02-13T11:41:47.131Z,33.96
2023-02-13T11:44:20.708Z,34.05
2023-02-13T11:46:47.567Z,34.03
2023-02-13T11:49:20.891Z,33.95
2023-02-13T11:51:51.202Z,34.18
2023-02-13T11:54:22.338Z,33.92
2023-02-13T11:57:03.976Z,33.97
2023-02-13T11:59:32.117Z,34.31
2023-02-13T12:02:01.640Z,34.18
2023-02-13T12:04:27.962Z,33.97
2023-02-13T12:06:58.120Z,34.31
2023-02-13T12:09:24.440Z,34.30
2023-02-13T12:11:54.052Z,34.19
2023-02-13T12:14:24.579Z,34.38
2023-02-13T12:16:51.617Z,34.07
2023-02-13T12:19:19.932Z,34.20
2023-02-13T12:21:58.253Z,34.22
2023-02-13T12:24:27.575Z,34.39
2023-02-13T12:26:58.933Z,34.24
2023-02-13T12:29:28.338Z,34.26
2023-02-13T12:31:54.681Z,34.21
2023-02-13T12:34:31.991Z,34.32
2023-02-13T12:37:01.908Z,34.31
2023-02-13T12:39:34.817Z,34.18
2023-02-13T12:42:07.055Z,34.40
2023-02-13T12:44:37.172Z,34.38
2023-02-13T12:47:09.733Z,34.07
2023-02-13T12:49:42.931Z,34.19
2023-02-13T12:52:28.278Z,34.03
2023-02-13T12:55:00.759Z,34.20
2023-02-13T12:57:48.992Z,34.40
2023-02-13T13:00:33.996Z,34.33
2023-02-13T13:03:23.368Z,34.41
2023-02-13T13:06:03.604Z,34.35
2023-02-13T13:08:55.763Z,34.75
2023-02-13T13:11:30.931Z,34.86
2023-02-13T13:14:00.876Z,34.60
2023-02-13T13:16:27.688Z,34.61
2023-02-13T13:19:13.423Z,34.20
2023-02-13T13:21:41.685Z,34.04
2023-02-13T13:24:18.259Z,33.98
2023-02-13T13:26:45.324Z,34.30
2023-02-13T13:29:15.679Z,33.83
2023-02-13T13:31:42.055Z,34.09
2023-02-13T13:34:11.079Z,33.67
2023-02-13T13:36:45.058Z,33.78
2023-02-13T13:39:17.582Z,33.52
2023-02-13T13:42:08.198Z,33.34
2023-02-13T13:44:48.938Z,33.31
2023-02-13T13:47:15.172Z,33.16
2023-02-13T13:49:46.840Z,33.07
2023-02-13T13:52:20.562Z,33.00
2023-02-13T13:54:51.492Z,33.15
2023-02-13T13:57:18.414Z,33.39
2023-02-13T13:59:51.240Z,32.61
2023-02-13T14:02:17.583Z,30.96
2023-02-13T14:05:05.806Z,32.49
2023-02-13T14:07:35.538Z,32.98
2023-02-13T14:10:01.905Z,33.16
2023-02-13T14:12:28.185Z,33.52
2023-02-13T14:14:54.618Z,33.11
2023-02-13T14:17:39.476Z,33.55
2023-02-13T14:20:17.194Z,33.12
2023-02-13T14:22:43.502Z,33.42
2023-02-13T14:25:21.424Z,33.69
2023-02-13T14:27:55.241Z,33.36
2023-02-13T14:30:28.644Z,33.58
2023-02-13T14:32:55.188Z,33.25
2023-02-13T14:35:28.577Z,33.26
2023-02-13T14:37:56.200Z,33.41
2023-02-13T14:40:22.503Z,33.26
2023-02-13T14:42:51.207Z,33.36
2023-02-13T14:45:18.459Z,33.74
2023-02-13T14:47:45.439Z,33.72
2023-02-13T14:50:15.840Z,33.65
2023-02-13T14:52:43.030Z,33.82
2023-02-13T14:55:17.012Z,33.92
2023-02-13T14:57:44.266Z,33.81
2023-02-13T15:00:23.514Z,34.03
2023-02-13T15:02:51.594Z,33.74
2023-02-13T15:05:20.101Z,33.77
2023-02-13T15:07:48.303Z,33.90
2023-02-13T15:10:29.978Z,33.71
2023-02-13T15:12:56.768Z,33.88
2023-02-13T15:15:24.381Z,33.88
2023-02-13T15:17:50.700Z,33.65
2023-02-13T15:20:20.047Z,33.79
2023-02-13T15:22:46.440Z,33.81
2023-02-13T15:25:23.249Z,33.78
2023-02-13T15:27:51.862Z,33.83
2023-02-13T15:30:21.906Z,33.90
2023-02-13T15:32:53.894Z,33.53
2023-02-13T15:35:33.477Z,33.62
2023-02-13T15:38:00.164Z,33.53
2023-02-13T15:40:27.381Z,33.38
2023-02-13T15:42:53.848Z,33.59
2023-02-13T15:45:20.525Z,33.40
2023-02-13T15:47:46.828Z,33.56
2023-02-13T15:50:16.630Z,33.61
2023-02-13T15:52:42.958Z,33.76
2023-02-13T15:55:22.209Z,33.74
2023-02-13T15:57:48.525Z,33.77
2023-02-13T16:00:17.709Z,33.92
2023-02-13T16:02:46.028Z,33.80
2023-02-13T16:05:12.717Z,33.71
2023-02-13T16:07:55.029Z,33.83
2023-02-13T16:10:25.960Z,33.84
2023-02-13T16:12:52.274Z,34.00
2023-02-13T16:15:19.583Z,33.74
2023-02-13T16:17:46.035Z,34.17
2023-02-13T16:20:12.432Z,33.93
2023-02-13T16:22:47.782Z,33.70
2023-02-13T16:25:14.165Z,34.20
2023-02-13T16:27:45.253Z,33.93
2023-02-13T16:30:33.390Z,34.17
2023-02-13T16:33:09.683Z,33.89
2023-02-13T16:35:37.942Z,34.07
2023-02-13T16:38:04.702Z,34.19
2023-02-13T16:40:30.966Z,34.21
2023-02-13T16:43:15.788Z,34.15
2023-02-13T16:45:42.246Z,33.96
2023-02-13T16:48:12.439Z,34.09
2023-02-13T16:50:38.768Z,34.07
2023-02-13T16:53:05.308Z,34.23
2023-02-13T16:55:31.769Z,33.94
2023-02-13T16:58:04.212Z,33.97
2023-02-13T17:00:30.611Z,33.33
2023-02-13T17:02:57.369Z,33.24
2023-02-13T17:05:24.424Z,33.22
2023-02-13T17:07:51.658Z,32.95
2023-02-13T17:10:27.990Z,32.95
2023-02-13T17:12:55.025Z,32.75
2023-02-13T17:15:22.280Z,32.97
2023-02-13T17:17:48.709Z,32.89
2023-02-13T17:20:17.605Z,33.26
2023-02-13T17:22:44.587Z,33.41
2023-02-13T17:25:22.050Z,33.14
2023-02-13T17:27:48.910Z,33.20
2023-02-13T17:30:19.248Z,33.28
2023-02-13T17:32:45.753Z,33.70
2023-02-13T17:35:12.355Z,33.72
2023-02-13T17:37:38.694Z,34.15
2023-02-13T17:40:05.283Z,33.97
2023-02-13T17:42:31.617Z,33.71
2023-02-13T17:44:58.004Z,33.75
2023-02-13T17:47:25.020Z,33.98
2023-02-13T17:49:52.410Z,33.66
2023-02-13T17:52:22.300Z,33.40
2023-02-13T17:54:48.787Z,33.72
2023-02-13T17:57:15.645Z,33.19
2023-02-13T17:59:41.978Z,33.25
2023-02-13T18:02:21.358Z,33.20
2023-02-13T18:04:47.713Z,33.52
2023-02-13T18:07:14.895Z,33.61
2023-02-13T18:09:41.782Z,33.55
2023-02-13T18:12:08.552Z,33.72
2023-02-13T18:14:34.865Z,33.78
2023-02-13T18:17:01.204Z,33.78
2023-02-13T18:19:27.592Z,33.49
2023-02-13T18:21:53.961Z,33.80
2023-02-13T18:24:20.293Z,33.34
2023-02-13T18:26:47.133Z,33.88
2023-02-13T18:29:13.698Z,33.60
2023-02-13T18:31:40.155Z,33.15
2023-02-13T18:34:06.542Z,32.99
2023-02-13T18:36:32.900Z,32.86
2023-02-13T18:38:59.213Z,33.06
2023-02-13T18:41:25.599Z,32.92
2023-02-13T18:43:51.941Z,32.77
2023-02-13T18:46:18.316Z,33.00
2023-02-13T18:48:44.664Z,33.09
2023-02-13T18:51:11.000Z,33.12
2023-02-13T18:53:37.402Z,33.03
2023-02-13T18:56:04.252Z,33.09
2023-02-13T18:58:30.620Z,33.39
2023-02-13T19:00:57.288Z,33.30
2023-02-13T19:03:23.846Z,33.16
2023-02-13T19:05:50.270Z,33.50
2023-02-13T19:08:17.862Z,33.34
2023-02-13T19:10:44.248Z,33.40
2023-02-13T19:13:10.868Z,33.45
2023-02-13T19:15:37.298Z,33.34
2023-02-13T19:18:03.659Z,33.35
2023-02-13T19:20:30.018Z,33.42
2023-02-13T19:22:56.495Z,33.37
2023-02-13T19:25:22.813Z,33.42
2023-02-13T19:27:49.119Z,33.51
2023-02-13T19:30:15.518Z,33.94
2023-02-13T19:32:41.941Z,33.74
2023-02-13T19:35:08.296Z,33.70
2023-02-13T19:37:43.535Z,33.52
2023-02-13T19:40:11.104Z,33.91
2023-02-13T19:42:39.815Z,33.80
2023-02-13T19:45:06.575Z,33.81
2023-02-13T19:47:33.370Z,33.88
2023-02-13T19:49:59.799Z,33.95
2023-02-13T19:52:26.140Z,33.62
2023-02-13T19:54:54.088Z,34.02
2023-02-13T19:57:21.529Z,33.95
2023-02-13T19:59:48.002Z,33.64
2023-02-13T20:02:14.666Z,34.15
2023-02-13T20:04:41.098Z,33.84
2023-02-13T20:07:07.716Z,34.09
2023-02-13T20:09:35.197Z,34.31
2023-02-13T20:12:01.503Z,34.33
2023-02-13T20:14:27.809Z,34.11
2023-02-13T20:16:54.172Z,34.05
2023-02-13T20:19:20.713Z,34.33
2023-02-13T20:21:47.044Z,34.20
2023-02-13T20:24:13.367Z,34.10
2023-02-13T20:26:39.749Z,34.42
2023-02-13T20:29:06.138Z,34.25
2023-02-13T20:31:34.231Z,34.29
2023-02-13T20:34:00.620Z,34.18
2023-02-13T20:36:27.757Z,34.33
2023-02-13T20:38:54.719Z,34.54
2023-02-13T20:41:21.834Z,34.58
2023-02-13T20:43:48.146Z,34.43
2023-02-13T20:46:17.274Z,34.27
2023-02-13T20:48:44.566Z,34.61
2023-02-13T20:51:14.369Z,34.64
2023-02-13T20:53:40.876Z,34.19
2023-02-13T20:56:08.133Z,34.68
2023-02-13T20:58:34.560Z,34.50
2023-02-13T21:01:01.428Z,34.91
2023-02-13T21:03:27.996Z,34.81
2023-02-13T21:05:54.341Z,35.12
2023-02-13T21:08:20.667Z,34.62
2023-02-13T21:10:47.036Z,35.24
2023-02-13T21:13:13.358Z,35.10
2023-02-13T21:15:39.721Z,35.00
2023-02-13T21:18:06.035Z,34.60
2023-02-13T21:20:32.349Z,34.72
2023-02-13T21:22:59.441Z,34.67
2023-02-13T21:25:25.912Z,34.90
2023-02-13T21:27:52.228Z,34.66
2023-02-13T21:30:18.614Z,34.59
2023-02-13T21:32:44.978Z,33.89
2023-02-13T21:35:11.280Z,34.90
2023-02-13T21:37:37.661Z,35.11
2023-02-13T21:40:04.066Z,34.39
2023-02-13T21:42:33.263Z,34.41
2023-02-13T21:44:59.570Z,34.74
2023-02-13T21:47:25.945Z,34.35
2023-02-13T21:49:52.290Z,34.61
2023-02-13T21:52:18.691Z,34.45
2023-02-13T21:54:45.059Z,34.71
2023-02-13T21:57:11.375Z,34.35
2023-02-13T21:59:37.694Z,34.38
2023-02-13T22:02:04.122Z,34.74
2023-02-13T22:04:30.636Z,34.49
2023-02-13T22:06:57.295Z,34.53
2023-02-13T22:09:25.284Z,34.52
2023-02-13T22:11:52.439Z,34.78
2023-02-13T22:14:18.768Z,34.63
2023-02-13T22:16:45.220Z,34.85
2023-02-13T22:19:12.496Z,34.44
2023-02-13T22:21:38.837Z,34.38
2023-02-13T22:24:05.275Z,34.85
2023-02-13T22:26:32.392Z,34.77
2023-02-13T22:28:59.483Z,34.69
2023-02-13T22:31:26.190Z,34.13
2023-02-13T22:34:02.985Z,33.94
2023-02-13T22:36:30.792Z,34.22
2023-02-13T22:38:58.143Z,33.94
2023-02-13T22:41:24.759Z,34.09
2023-02-13T22:43:51.123Z,33.55
2023-02-13T22:46:22.027Z,33.64
2023-02-13T22:48:48.374Z,34.19
2023-02-13T22:51:15.882Z,33.82
2023-02-13T22:53:42.224Z,33.74
2023-02-13T22:56:08.644Z,33.65
2023-02-13T22:58:35.138Z,33.90
2023-02-13T23:01:01.600Z,33.02
2023-02-13T23:03:27.984Z,32.84
2023-02-13T23:05:54.296Z,32.64
2023-02-13T23:08:20.645Z,33.14
2023-02-13T23:11:06.923Z,32.77
2023-02-13T23:13:33.261Z,32.82
2023-02-13T23:15:59.649Z,33.00
2023-02-13T23:18:26.151Z,32.93
2023-02-13T23:20:52.468Z,32.60
2023-02-13T23:23:18.783Z,32.64
2023-02-13T23:25:45.109Z,32.44
2023-02-13T23:28:11.427Z,32.44
2023-02-13T23:30:37.766Z,32.59
2023-02-13T23:33:04.085Z,32.50
2023-02-13T23:35:30.398Z,32.35
2023-02-13T23:37:56.712Z,32.83
2023-02-13T23:40:23.337Z,33.14
2023-02-13T23:42:49.657Z,32.87
2023-02-13T23:45:15.971Z,32.70
2023-02-13T23:47:42.300Z,31.92
2023-02-13T23:50:09.309Z,32.57
2023-02-13T23:52:35.616Z,32.32
2023-02-13T23:55:01.940Z,32.51
2023-02-13T23:57:28.299Z,32.52
2023-02-13T23:59:54.602Z,32.45
